createdAt,value
2023-04-24T00:02:23.327Z,3.83
2023-04-24T00:04:50.541Z,4.33
2023-04-24T00:07:17.891Z,3.93
2023-04-24T00:09:45.177Z,3.67
2023-04-24T00:12:12.190Z,3.07
2023-04-24T00:14:39.336Z,3.00
2023-04-24T00:17:06.280Z,2.80
2023-04-24T00:19:33.159Z,3.10
2023-04-24T00:22:00.070Z,3.27
2023-04-24T00:24:26.820Z,3.13
2023-04-24T00:26:53.542Z,2.90
2023-04-24T00:29:20.457Z,2.83
2023-04-24T00:31:47.325Z,2.60
2023-04-24T00:34:14.666Z,2.10
2023-04-24T00:36:41.691Z,2.50
2023-04-24T00:39:11.396Z,3.33
2023-04-24T00:41:38.481Z,3.23
2023-04-24T00:44:05.452Z,3.27
2023-04-24T00:46:32.828Z,4.10
2023-04-24T00:49:19.491Z,3.57
2023-04-24T00:51:46.691Z,3.67
2023-04-24T00:54:14.367Z,3.37
2023-04-24T00:56:42.328Z,4.17
2023-04-24T00:59:10.832Z,4.13
2023-04-24T01:01:37.881Z,3.37
2023-04-24T01:04:05.444Z,5.00
2023-04-24T01:06:33.000Z,4.87
2023-04-24T01:09:01.423Z,4.50
2023-04-24T01:11:31.034Z,4.10
2023-04-24T01:13:58.185Z,3.83
2023-04-24T01:16:25.006Z,4.33
2023-04-24T01:18:52.357Z,4.40
2023-04-24T01:21:39.255Z,4.30
2023-04-24T01:24:07.381Z,4.17
2023-04-24T01:26:34.316Z,4.33
2023-04-24T01:29:01.377Z,4.20
2023-04-24T01:31:28.675Z,3.43
2023-04-24T01:33:57.014Z,3.40
2023-04-24T01:36:27.011Z,4.67
2023-04-24T01:38:54.016Z,3.40
2023-04-24T01:41:21.577Z,3.53
2023-04-24T01:43:49.953Z,4.40
2023-04-24T01:46:16.892Z,2.67
2023-04-24T01:48:45.614Z,3.77
2023-04-24T01:51:12.431Z,3.93
2023-04-24T01:53:39.390Z,2.67
2023-04-24T01:56:06.441Z,3.37
2023-04-24T01:58:33.587Z,2.00
2023-04-24T02:01:01.431Z,2.60
2023-04-24T02:03:28.501Z,2.73
2023-04-24T02:05:58.376Z,2.63
2023-04-24T02:08:25.336Z,2.20
2023-04-24T02:11:11.264Z,2.00
2023-04-24T02:13:38.170Z,2.70
2023-04-24T02:16:05.164Z,2.77
2023-04-24T02:18:32.041Z,2.60
2023-04-24T02:20:58.861Z,2.43
2023-04-24T02:23:26.565Z,2.80
2023-04-24T02:25:54.338Z,3.13
2023-04-24T02:28:21.179Z,1.87
2023-04-24T02:30:47.987Z,2.53
2023-04-24T02:33:14.745Z,1.67
2023-04-24T02:35:41.512Z,2.93
2023-04-24T02:38:08.562Z,2.43
2023-04-24T02:40:36.705Z,1.93
2023-04-24T02:43:03.590Z,1.80
2023-04-24T02:45:30.977Z,2.00
2023-04-24T02:47:57.803Z,1.80
2023-04-24T02:50:24.665Z,2.30
2023-04-24T02:52:51.413Z,1.60
2023-04-24T02:55:18.333Z,2.30
2023-04-24T02:57:45.064Z,2.83
2023-04-24T03:00:15.552Z,2.40
2023-04-24T03:02:42.681Z,3.43
2023-04-24T03:05:10.396Z,2.77
2023-04-24T03:07:38.038Z,2.40
2023-04-24T03:10:06.745Z,2.00
2023-04-24T03:12:33.612Z,2.37
2023-04-24T03:15:01.315Z,2.53
2023-04-24T03:17:28.138Z,2.63
2023-04-24T03:19:54.982Z,2.40
2023-04-24T03:22:21.893Z,2.17
2023-04-24T03:24:48.742Z,1.93
2023-04-24T03:27:18.241Z,2.73
2023-04-24T03:29:56.621Z,2.53
2023-04-24T03:32:29.718Z,2.43
2023-04-24T03:34:57.068Z,2.67
2023-04-24T03:37:23.863Z,2.33
2023-04-24T03:40:02.258Z,2.73
2023-04-24T03:42:29.810Z,2.97
2023-04-24T03:44:56.906Z,2.70
2023-04-24T03:47:28.978Z,2.57
2023-04-24T03:50:00.069Z,2.50
2023-04-24T03:52:27.016Z,3.20
2023-04-24T03:54:53.870Z,2.37
2023-04-24T03:57:21.284Z,2.90
2023-04-24T04:00:01.284Z,2.90
2023-04-24T04:02:47.289Z,2.40
2023-04-24T04:05:14.279Z,2.27
2023-04-24T04:07:42.053Z,2.53
2023-04-24T04:10:09.373Z,2.37
2023-04-24T04:12:37.752Z,2.20
2023-04-24T04:15:05.678Z,3.03
2023-04-24T04:17:33.168Z,2.10
2023-04-24T04:20:02.082Z,2.20
2023-04-24T04:25:20.637Z,2.00
2023-04-24T04:27:49.532Z,1.90
2023-04-24T04:30:16.534Z,2.30
2023-04-24T04:32:52.534Z,2.40
2023-04-24T04:35:37.829Z,2.27
2023-04-24T04:38:05.838Z,1.10
2023-04-24T04:41:02.101Z,1.30
2023-04-24T04:43:32.074Z,1.60
2023-04-24T04:45:59.374Z,1.23
2023-04-24T04:48:29.822Z,1.43
2023-04-24T04:50:59.431Z,1.50
2023-04-24T04:53:27.841Z,1.30
2023-04-24T04:55:54.666Z,2.00
2023-04-24T04:58:26.472Z,1.30
2023-04-24T05:00:58.538Z,1.60
2023-04-24T05:03:40.369Z,2.40
2023-04-24T05:06:10.338Z,1.63
2023-04-24T05:08:39.541Z,1.77
2023-04-24T05:11:09.586Z,1.60
2023-04-24T05:13:41.034Z,1.40
2023-04-24T05:16:28.500Z,1.93
2023-04-24T05:18:56.370Z,1.57
2023-04-24T05:21:29.425Z,1.80
2023-04-24T05:23:56.478Z,1.87
2023-04-24T05:26:43.877Z,1.90
2023-04-24T05:29:12.915Z,2.33
2023-04-24T05:31:39.720Z,1.90
2023-04-24T05:34:06.831Z,2.33
2023-04-24T05:36:34.164Z,2.07
2023-04-24T05:39:00.996Z,1.97
2023-04-24T05:41:27.745Z,2.10
2023-04-24T05:43:54.566Z,2.07
2023-04-24T05:46:21.768Z,1.97
2023-04-24T05:48:48.597Z,2.50
2023-04-24T05:51:15.695Z,3.13
2023-04-24T05:53:42.606Z,3.97
2023-04-24T05:56:09.847Z,2.73
2023-04-24T05:58:38.447Z,3.07
2023-04-24T06:01:05.801Z,3.07
2023-04-24T06:03:34.023Z,2.53
2023-04-24T06:06:03.935Z,2.47
2023-04-24T06:08:30.808Z,2.67
2023-04-24T06:10:57.592Z,3.50
2023-04-24T06:13:24.620Z,2.40
2023-04-24T06:16:11.566Z,3.00
2023-04-24T06:18:40.977Z,2.37
2023-04-24T06:21:07.805Z,2.60
2023-04-24T06:23:34.776Z,1.90
2023-04-24T06:26:01.790Z,2.37
2023-04-24T06:28:28.640Z,2.67
2023-04-24T06:30:55.649Z,3.10
2023-04-24T06:33:23.919Z,3.60
2023-04-24T06:35:51.191Z,2.40
2023-04-24T06:38:18.154Z,2.07
2023-04-24T06:40:45.196Z,2.20
2023-04-24T06:43:12.085Z,2.30
2023-04-24T06:45:41.039Z,2.33
2023-04-24T06:48:08.241Z,2.20
2023-04-24T06:50:35.275Z,2.03
2023-04-24T06:53:02.063Z,2.33
2023-04-24T06:55:28.917Z,1.37
2023-04-24T06:57:55.775Z,2.30
2023-04-24T07:00:22.752Z,1.70
2023-04-24T07:02:49.678Z,2.13
2023-04-24T07:05:35.362Z,2.03
2023-04-24T07:08:03.173Z,2.37
2023-04-24T07:10:30.712Z,2.63
2023-04-24T07:12:57.866Z,2.27
2023-04-24T07:15:24.774Z,1.70
2023-04-24T07:17:51.706Z,2.90
2023-04-24T07:20:18.563Z,2.13
2023-04-24T07:22:45.420Z,2.87
2023-04-24T07:25:12.527Z,2.40
2023-04-24T07:27:39.380Z,2.57
2023-04-24T07:30:08.023Z,3.53
2023-04-24T07:32:34.791Z,2.10
2023-04-24T07:35:01.716Z,2.63
2023-04-24T07:37:29.619Z,2.33
2023-04-24T07:39:56.658Z,2.53
2023-04-24T07:42:23.417Z,3.50
2023-04-24T07:44:50.234Z,2.93
2023-04-24T07:47:17.097Z,2.63
2023-04-24T07:49:44.294Z,3.50
2023-04-24T07:52:11.377Z,2.93
2023-04-24T07:54:38.553Z,1.90
2023-04-24T07:57:07.368Z,2.97
2023-04-24T07:59:34.143Z,3.30
2023-04-24T08:02:19.752Z,2.87
2023-04-24T08:04:46.999Z,3.73
2023-04-24T08:07:14.085Z,2.70
2023-04-24T08:09:40.997Z,2.97
2023-04-24T08:12:07.819Z,2.50
2023-04-24T08:14:34.572Z,3.30
2023-04-24T08:17:02.374Z,3.23
2023-04-24T08:19:29.249Z,2.20
2023-04-24T08:21:56.089Z,1.97
2023-04-24T08:24:23.530Z,2.00
2023-04-24T08:26:55.079Z,2.23
2023-04-24T08:29:22.102Z,2.37
2023-04-24T08:31:48.924Z,1.90
2023-04-24T08:34:15.811Z,3.30
2023-04-24T08:37:01.294Z,2.23
2023-04-24T08:39:28.233Z,2.17
2023-04-24T08:42:14.058Z,2.30
2023-04-24T08:44:41.106Z,1.90
2023-04-24T08:47:09.075Z,2.03
2023-04-24T08:49:38.723Z,1.87
2023-04-24T08:52:09.112Z,1.90
2023-04-24T08:54:55.487Z,1.97
2023-04-24T08:57:22.747Z,1.80
2023-04-24T08:59:50.277Z,3.10
2023-04-24T09:02:18.086Z,1.90
2023-04-24T09:04:46.927Z,1.73
2023-04-24T09:07:17.825Z,1.67
2023-04-24T09:09:45.626Z,2.27
2023-04-24T09:12:12.908Z,1.60
2023-04-24T09:14:43.666Z,1.67
2023-04-24T09:17:10.581Z,1.83
2023-04-24T09:19:37.485Z,2.23
2023-04-24T09:22:08.455Z,2.37
2023-04-24T09:24:36.134Z,2.00
2023-04-24T09:27:03.234Z,2.23
2023-04-24T09:29:30.100Z,2.50
2023-04-24T09:31:57.088Z,2.17
2023-04-24T09:34:45.009Z,2.50
2023-04-24T09:37:30.268Z,2.50
2023-04-24T09:40:19.741Z,2.67
2023-04-24T09:45:47.985Z,2.90
2023-04-24T09:48:14.766Z,2.03
2023-04-24T09:50:47.438Z,2.43
2023-04-24T09:53:32.689Z,2.37
2023-04-24T09:56:10.830Z,2.20
2023-04-24T09:58:38.148Z,2.40
2023-04-24T10:01:05.683Z,1.67
2023-04-24T10:03:34.400Z,1.97
2023-04-24T10:06:02.364Z,1.73
2023-04-24T10:08:35.656Z,2.87
2023-04-24T10:11:03.032Z,3.03
2023-04-24T10:13:30.124Z,3.20
2023-04-24T10:15:58.984Z,2.80
2023-04-24T10:18:26.974Z,3.23
2023-04-24T10:20:56.119Z,3.70
2023-04-24T10:23:24.242Z,4.37
2023-04-24T10:25:52.348Z,4.23
2023-04-24T10:28:20.620Z,2.70
2023-04-24T10:30:48.620Z,3.03
2023-04-24T10:33:16.413Z,2.13
2023-04-24T10:35:50.202Z,1.73
2023-04-24T10:38:26.138Z,1.50
2023-04-24T10:40:58.453Z,1.43
2023-04-24T10:43:25.330Z,1.73
2023-04-24T10:46:03.829Z,2.00
2023-04-24T10:48:30.987Z,1.30
2023-04-24T10:50:57.732Z,1.40
2023-04-24T10:53:28.606Z,1.20
2023-04-24T10:56:06.418Z,1.83
2023-04-24T11:01:39.597Z,1.30
2023-04-24T11:04:06.546Z,0.93
2023-04-24T11:06:36.091Z,1.00
2023-04-24T11:09:08.405Z,2.23
2023-04-24T11:11:55.620Z,1.53
2023-04-24T11:14:23.052Z,1.03
2023-04-24T11:16:55.148Z,1.60
2023-04-24T11:19:27.264Z,1.60
2023-04-24T11:22:05.911Z,1.50
2023-04-24T11:24:47.920Z,1.73
2023-04-24T11:27:23.305Z,1.07
2023-04-24T11:29:56.131Z,1.00
2023-04-24T11:32:30.841Z,1.37
2023-04-24T11:35:00.480Z,1.67
2023-04-24T11:37:37.247Z,1.80
2023-04-24T11:40:06.139Z,1.10
2023-04-24T11:42:46.500Z,1.20
2023-04-24T11:45:19.073Z,1.13
2023-04-24T11:47:46.830Z,1.35
2023-04-24T11:50:15.777Z,1.13
2023-04-24T11:52:45.198Z,1.20
2023-04-24T11:55:18.048Z,0.60
2023-04-24T11:57:52.427Z,1.00
2023-04-24T12:00:24.907Z,1.10
2023-04-24T12:02:52.797Z,0.98
2023-04-24T12:05:23.175Z,1.30
2023-04-24T12:07:50.597Z,0.77
2023-04-24T12:10:28.651Z,1.17
2023-04-24T12:12:57.735Z,0.80
2023-04-24T12:15:25.131Z,1.00
2023-04-24T12:17:53.457Z,0.90
2023-04-24T12:20:26.568Z,1.77
2023-04-24T12:22:58.205Z,1.67
2023-04-24T12:25:29.702Z,1.13
2023-04-24T12:28:16.783Z,1.03
2023-04-24T12:30:50.041Z,1.27
2023-04-24T12:33:21.163Z,1.23
2023-04-24T12:35:49.920Z,1.27
2023-04-24T12:38:17.335Z,1.10
2023-04-24T12:40:44.969Z,1.63
2023-04-24T12:43:19.684Z,2.03
2023-04-24T12:45:49.547Z,2.17
2023-04-24T12:48:16.674Z,1.20
2023-04-24T12:50:46.050Z,1.20
2023-04-24T12:53:13.622Z,2.33
2023-04-24T12:55:41.123Z,1.23
2023-04-24T12:58:08.433Z,1.63
2023-04-24T13:00:35.375Z,1.13
2023-04-24T13:03:02.581Z,1.03
2023-04-24T13:05:29.711Z,1.20
2023-04-24T13:07:56.517Z,1.03
2023-04-24T13:10:23.335Z,0.90
2023-04-24T13:12:50.626Z,1.27
2023-04-24T13:15:17.564Z,1.37
2023-04-24T13:17:44.537Z,1.20
2023-04-24T13:20:11.499Z,1.10
2023-04-24T13:22:56.962Z,1.30
2023-04-24T13:25:24.666Z,0.90
2023-04-24T13:27:51.864Z,0.83
2023-04-24T13:30:18.785Z,0.77
2023-04-24T13:32:45.741Z,1.20
2023-04-24T13:35:13.013Z,1.60
2023-04-24T13:37:39.805Z,0.60
2023-04-24T13:40:08.138Z,0.60
2023-04-24T13:42:35.382Z,0.70
2023-04-24T13:45:05.962Z,0.60
2023-04-24T13:47:42.197Z,0.87
2023-04-24T13:50:10.444Z,1.10
2023-04-24T13:52:37.261Z,0.80
2023-04-24T13:55:04.265Z,0.90
2023-04-24T13:57:32.236Z,1.00
2023-04-24T14:00:02.789Z,1.07
2023-04-24T14:02:34.055Z,1.27
2023-04-24T14:05:01.490Z,1.07
2023-04-24T14:07:29.312Z,1.10
2023-04-24T14:10:14.715Z,0.50
2023-04-24T14:13:00.314Z,0.93
2023-04-24T14:15:27.158Z,1.27
2023-04-24T14:17:53.969Z,1.47
2023-04-24T14:20:20.858Z,1.10
2023-04-24T14:22:47.562Z,1.83
2023-04-24T14:25:14.452Z,1.27
2023-04-24T14:27:41.236Z,0.90
2023-04-24T14:30:08.665Z,0.90
2023-04-24T14:32:36.600Z,1.17
2023-04-24T14:35:03.566Z,0.80
2023-04-24T14:37:30.548Z,1.10
2023-04-24T14:40:11.793Z,1.03
2023-04-24T14:42:44.220Z,1.07
2023-04-24T14:45:11.169Z,1.20
2023-04-24T14:47:38.319Z,1.30
2023-04-24T14:50:06.084Z,1.53
2023-04-24T14:52:32.894Z,1.43
2023-04-24T14:54:59.709Z,1.20
2023-04-24T14:57:27.212Z,0.97
2023-04-24T14:59:54.138Z,1.20
2023-04-24T15:02:22.745Z,0.97
2023-04-24T15:05:09.717Z,1.07
2023-04-24T15:07:37.082Z,1.50
2023-04-24T15:10:04.656Z,1.33
2023-04-24T15:12:32.014Z,2.23
2023-04-24T15:15:00.373Z,0.83
2023-04-24T15:17:27.983Z,1.47
2023-04-24T15:19:55.090Z,0.83
2023-04-24T15:22:21.918Z,1.13
2023-04-24T15:24:48.719Z,0.83
2023-04-24T15:27:15.699Z,1.27
2023-04-24T15:30:01.153Z,0.87
2023-04-24T15:32:28.056Z,1.73
2023-04-24T15:35:07.084Z,0.90
2023-04-24T15:37:54.094Z,1.70
2023-04-24T15:40:20.881Z,1.33
2023-04-24T15:42:47.910Z,1.20
2023-04-24T15:45:14.835Z,1.40
2023-04-24T15:47:41.808Z,1.53
2023-04-24T15:50:27.472Z,1.60
2023-04-24T15:52:54.248Z,0.80
2023-04-24T15:55:21.062Z,1.37
2023-04-24T15:57:47.896Z,0.70
2023-04-24T16:00:15.394Z,2.53
2023-04-24T16:02:42.479Z,3.03
2023-04-24T16:05:09.747Z,1.17
2023-04-24T16:07:38.593Z,1.53
2023-04-24T16:10:05.836Z,2.03
2023-04-24T16:12:32.624Z,1.30
2023-04-24T16:15:01.336Z,1.07
2023-04-24T16:17:28.154Z,1.57
2023-04-24T16:19:54.947Z,1.20
2023-04-24T16:22:22.236Z,1.10
2023-04-24T16:24:49.013Z,0.77
2023-04-24T16:27:16.080Z,1.00
2023-04-24T16:29:43.024Z,2.30
2023-04-24T16:32:11.113Z,0.90
2023-04-24T16:37:22.460Z,0.97
2023-04-24T16:39:49.340Z,1.07
2023-04-24T16:42:16.530Z,0.67
2023-04-24T16:44:43.458Z,0.73
2023-04-24T16:47:12.557Z,0.80
2023-04-24T16:49:39.401Z,0.90
2023-04-24T16:52:06.145Z,1.00
2023-04-24T16:54:35.724Z,1.10
2023-04-24T16:57:03.735Z,1.10
2023-04-24T16:59:34.027Z,0.80
2023-04-24T17:02:01.543Z,1.10
2023-04-24T17:04:28.673Z,1.40
2023-04-24T17:07:14.284Z,1.13
2023-04-24T17:09:41.215Z,1.60
2023-04-24T17:12:08.403Z,1.20
2023-04-24T17:14:35.261Z,1.60
2023-04-24T17:17:02.327Z,1.70
2023-04-24T17:19:48.113Z,1.10
2023-04-24T17:22:14.882Z,1.30
2023-04-24T17:24:41.682Z,1.60
2023-04-24T17:27:15.069Z,1.00
2023-04-24T17:29:42.686Z,1.23
2023-04-24T17:32:28.531Z,1.03
2023-04-24T17:34:55.351Z,1.50
2023-04-24T17:37:23.333Z,1.77
2023-04-24T17:39:50.986Z,1.20
2023-04-24T17:42:17.786Z,1.00
2023-04-24T17:45:04.113Z,1.17
2023-04-24T17:47:31.022Z,1.17
2023-04-24T17:49:57.793Z,0.90
2023-04-24T17:52:24.609Z,1.00
2023-04-24T17:54:51.391Z,0.93
2023-04-24T17:57:18.548Z,1.43
2023-04-24T17:59:45.384Z,0.93
2023-04-24T18:02:12.396Z,1.93
2023-04-24T18:04:40.670Z,1.00
2023-04-24T18:07:07.573Z,0.90
2023-04-24T18:09:34.406Z,1.23
2023-04-24T18:12:01.733Z,1.57
2023-04-24T18:14:28.594Z,1.70
2023-04-24T18:16:56.980Z,1.20
2023-04-24T18:19:24.963Z,1.10
2023-04-24T18:21:51.765Z,1.23
2023-04-24T18:24:19.689Z,1.13
2023-04-24T18:26:46.473Z,1.10
2023-04-24T18:29:13.294Z,0.97
2023-04-24T18:34:24.602Z,2.00
2023-04-24T18:37:10.342Z,1.60
2023-04-24T18:39:37.140Z,1.30
2023-04-24T18:42:04.079Z,1.30
2023-04-24T18:44:30.952Z,1.53
2023-04-24T18:46:57.771Z,1.40
2023-04-24T18:49:24.660Z,1.30
2023-04-24T18:51:54.588Z,1.50
2023-04-24T18:54:21.647Z,1.17
2023-04-24T18:56:48.890Z,1.50
2023-04-24T18:59:15.850Z,1.23
2023-04-24T19:01:42.769Z,0.90
2023-04-24T19:04:09.699Z,1.00
2023-04-24T19:06:36.552Z,1.13
2023-04-24T19:09:03.807Z,1.20
2023-04-24T19:11:30.734Z,1.17
2023-04-24T19:14:00.451Z,1.37
2023-04-24T19:16:27.283Z,1.33
2023-04-24T19:18:54.138Z,1.30
2023-04-24T19:21:21.042Z,1.10
2023-04-24T19:24:07.636Z,1.23
2023-04-24T19:26:34.485Z,1.30
2023-04-24T19:29:01.974Z,1.67
2023-04-24T19:31:48.414Z,0.87
2023-04-24T19:34:15.244Z,1.87
2023-04-24T19:36:43.073Z,2.03
2023-04-24T19:39:28.481Z,1.47
2023-04-24T19:41:57.170Z,1.63
2023-04-24T19:44:25.349Z,1.80
2023-04-24T19:46:52.250Z,1.37
2023-04-24T19:49:19.018Z,1.77
2023-04-24T19:51:48.570Z,1.47
2023-04-24T19:54:15.813Z,1.20
2023-04-24T19:56:42.533Z,1.43
2023-04-24T20:01:55.178Z,1.93
2023-04-24T20:04:23.598Z,1.73
2023-04-24T20:06:50.632Z,2.00
2023-04-24T20:09:17.424Z,1.90
2023-04-24T20:11:45.785Z,1.60
2023-04-24T20:14:12.654Z,1.67
2023-04-24T20:16:40.562Z,2.10
2023-04-24T20:19:08.133Z,2.07
2023-04-24T20:21:35.069Z,2.77
2023-04-24T20:24:02.062Z,1.77
2023-04-24T20:26:28.841Z,1.77
2023-04-24T20:28:55.682Z,1.37
2023-04-24T20:31:22.532Z,1.87
2023-04-24T20:33:49.395Z,1.23
2023-04-24T20:36:16.183Z,1.23
2023-04-24T20:38:43.027Z,1.53
2023-04-24T20:41:28.650Z,2.17
2023-04-24T20:44:13.793Z,1.40
2023-04-24T20:46:40.731Z,2.37
2023-04-24T20:49:07.789Z,1.47
2023-04-24T20:51:34.598Z,3.13
2023-04-24T20:54:01.429Z,2.33
2023-04-24T20:56:28.311Z,1.30
2023-04-24T20:58:57.196Z,2.00
2023-04-24T21:01:24.390Z,1.87
2023-04-24T21:03:53.092Z,1.60
2023-04-24T21:06:20.215Z,1.00
2023-04-24T21:08:47.049Z,1.20
2023-04-24T21:11:13.990Z,1.70
2023-04-24T21:13:40.756Z,1.57
2023-04-24T21:16:07.943Z,1.20
2023-04-24T21:18:34.862Z,1.47
2023-04-24T21:21:01.760Z,1.33
2023-04-24T21:23:28.522Z,1.33
2023-04-24T21:25:55.623Z,1.43
2023-04-24T21:28:24.980Z,1.30
2023-04-24T21:30:51.956Z,1.93
2023-04-24T21:33:18.736Z,2.27
2023-04-24T21:35:45.584Z,1.77
2023-04-24T21:40:56.748Z,2.13
2023-04-24T21:43:30.918Z,1.90
2023-04-24T21:46:08.526Z,1.80
2023-04-24T21:48:35.325Z,1.80
2023-04-24T21:51:02.123Z,1.80
2023-04-24T21:53:29.786Z,1.90
2023-04-24T21:55:56.803Z,1.50
2023-04-24T21:58:23.987Z,1.70
2023-04-24T22:00:50.809Z,1.30
2023-04-24T22:03:17.688Z,1.27
2023-04-24T22:05:45.030Z,2.23
2023-04-24T22:08:11.779Z,1.93
2023-04-24T22:10:38.579Z,1.63
2023-04-24T22:13:05.407Z,1.70
2023-04-24T22:15:32.342Z,2.20
2023-04-24T22:17:59.164Z,2.07
2023-04-24T22:20:26.058Z,1.70
2023-04-24T22:22:53.197Z,1.60
2023-04-24T22:25:19.948Z,1.40
2023-04-24T22:27:46.693Z,1.80
2023-04-24T22:30:32.068Z,1.97
2023-04-24T22:32:58.981Z,2.40
2023-04-24T22:35:25.985Z,2.07
2023-04-24T22:37:56.587Z,1.97
2023-04-24T22:40:25.225Z,1.93
2023-04-24T22:42:52.592Z,1.57
2023-04-24T22:48:04.189Z,1.80
2023-04-24T22:50:31.162Z,1.93
2023-04-24T22:52:57.934Z,1.60
2023-04-24T22:55:24.798Z,1.47
2023-04-24T22:57:51.743Z,1.97
2023-04-24T23:00:18.536Z,1.10
2023-04-24T23:02:45.559Z,1.50
2023-04-24T23:05:12.497Z,1.63
2023-04-24T23:07:39.652Z,2.03
2023-04-24T23:10:07.303Z,2.23
2023-04-24T23:12:52.626Z,1.43
2023-04-24T23:15:19.525Z,2.40
2023-04-24T23:17:46.323Z,1.77
2023-04-24T23:20:14.327Z,1.90
2023-04-24T23:22:42.125Z,2.10
2023-04-24T23:27:53.860Z,1.80
2023-04-24T23:30:20.830Z,1.23
2023-04-24T23:32:47.698Z,1.60
2023-04-24T23:35:14.546Z,1.70
2023-04-24T23:37:41.388Z,1.60
2023-04-24T23:40:12.020Z,1.97
2023-04-24T23:42:38.888Z,1.00
2023-04-24T23:45:06.060Z,1.60
2023-04-24T23:47:32.963Z,1.87
2023-04-24T23:49:59.759Z,1.63
2023-04-24T23:52:26.815Z,1.50
2023-04-24T23:54:53.627Z,1.67
